Shemah Yisrael!
Hear, O Israel: the LORD our God, the LORD is one.
You shall love the LORD your God with all your heart and with all your soul and with all your might.
(Deuteronomy 6:4-5)
Houston / Ellington, TX, United States (KEFD) 29-36N 095-10W
Mar 19, 2018 - 02:50 AM EDT / 2018.03.19 0650 UTC
Wind: from the SSE (160 degrees) at 8 MPH (7 KT):0
Visibility: 7 mile(s):0
Sky conditions: partly cloudy
Temperature: 71 F (22 C)
Dew Point: 66 F (19 C)
Relative Humidity: 83%
Pressure (altimeter): 29.76 in. Hg (1007 hPa)
ob: KEFD 190650Z 16007KT 7SM SCT040 SCT250 22/19 A2976
cycle: 7
w e b m a s t e r   a t   s h e m a h   d o t   n e t